sensor_id;sensor_type;location;lat;lon;timestamp;pressure;altitude;pressure_sealevel;temperature;humidity
29197;BME280;62796;42.654;23.316;2022-09-09T00:00:30;94774.97;;;22.32;56.74
29197;BME280;62796;42.654;23.316;2022-09-09T00:03:12;94782.97;;;22.41;56.52
29197;BME280;62796;42.654;23.316;2022-09-09T00:11:24;94777.00;;;22.35;56.61
29197;BME280;62796;42.654;23.316;2022-09-09T00:13:57;94778.09;;;22.34;56.60
29197;BME280;62796;42.654;23.316;2022-09-09T00:16:25;94778.34;;;22.29;57.12
29197;BME280;62796;42.654;23.316;2022-09-09T00:21:38;94768.53;;;22.04;57.41
29197;BME280;62796;42.654;23.316;2022-09-09T00:24:35;94766.66;;;21.95;58.25
29197;BME280;62796;42.654;23.316;2022-09-09T00:27:13;94756.94;;;21.82;57.96
29197;BME280;62796;42.654;23.316;2022-09-09T00:29:45;94751.75;;;21.77;57.88
29197;BME280;62796;42.654;23.316;2022-09-09T00:32:19;94751.66;;;21.65;58.05
29197;BME280;62796;42.654;23.316;2022-09-09T00:34:52;94748.25;;;21.55;58.38
29197;BME280;62796;42.654;23.316;2022-09-09T00:37:20;94743.69;;;21.47;58.90
29197;BME280;62796;42.654;23.316;2022-09-09T00:39:48;94731.03;;;21.39;58.28
29197;BME280;62796;42.654;23.316;2022-09-09T00:42:24;94738.78;;;21.40;58.04
29197;BME280;62796;42.654;23.316;2022-09-09T00:47:47;94735.88;;;21.24;57.92
29197;BME280;62796;42.654;23.316;2022-09-09T00:53:15;94731.78;;;21.18;58.16
29197;BME280;62796;42.654;23.316;2022-09-09T00:58:13;94734.06;;;21.08;59.08
29197;BME280;62796;42.654;23.316;2022-09-09T01:01:05;94739.97;;;21.01;59.57
29197;BME280;62796;42.654;23.316;2022-09-09T01:04:00;94738.38;;;21.00;59.48
29197;BME280;62796;42.654;23.316;2022-09-09T01:06:33;94737.91;;;20.98;59.73
29197;BME280;62796;42.654;23.316;2022-09-09T01:09:20;94744.63;;;20.92;59.58
29197;BME280;62796;42.654;23.316;2022-09-09T01:14:38;94741.81;;;20.79;60.51
29197;BME280;62796;42.654;23.316;2022-09-09T01:25:15;94743.78;;;20.53;60.92
29197;BME280;62796;42.654;23.316;2022-09-09T01:27:44;94741.25;;;20.47;61.17
29197;BME280;62796;42.654;23.316;2022-09-09T01:30:14;94733.81;;;20.44;61.17
29197;BME280;62796;42.654;23.316;2022-09-09T01:32:53;94737.63;;;20.43;61.35
29197;BME280;62796;42.654;23.316;2022-09-09T01:37:44;94748.41;;;20.43;61.15
29197;BME280;62796;42.654;23.316;2022-09-09T01:40:09;94741.28;;;20.39;61.24
29197;BME280;62796;42.654;23.316;2022-09-09T01:42:34;94740.69;;;20.33;61.12
29197;BME280;62796;42.654;23.316;2022-09-09T01:45:00;94755.53;;;20.39;61.28
29197;BME280;62796;42.654;23.316;2022-09-09T01:47:26;94755.53;;;20.39;61.26
29197;BME280;62796;42.654;23.316;2022-09-09T01:49:51;94755.53;;;20.39;61.25
29197;BME280;62796;42.654;23.316;2022-09-09T01:52:16;94763.00;;;20.34;61.28
29197;BME280;62796;42.654;23.316;2022-09-09T01:54:42;94750.50;;;20.29;61.43
29197;BME280;62796;42.654;23.316;2022-09-09T01:57:33;94774.09;;;20.32;61.58
29197;BME280;62796;42.654;23.316;2022-09-09T02:00:10;94764.78;;;20.29;61.54
29197;BME280;62796;42.654;23.316;2022-09-09T02:05:39;94758.41;;;20.25;61.70
29197;BME280;62796;42.654;23.316;2022-09-09T02:08:08;94760.97;;;20.22;61.97
29197;BME280;62796;42.654;23.316;2022-09-09T02:10:44;94763.66;;;20.22;61.84
29197;BME280;62796;42.654;23.316;2022-09-09T02:13:17;94758.63;;;20.20;62.03
29197;BME280;62796;42.654;23.316;2022-09-09T02:18:27;94727.88;;;20.13;61.93
29197;BME280;62796;42.654;23.316;2022-09-09T02:20:56;94749.25;;;20.18;62.40
29197;BME280;62796;42.654;23.316;2022-09-09T02:23:23;94743.88;;;20.18;62.12
29197;BME280;62796;42.654;23.316;2022-09-09T02:25:51;94738.31;;;20.14;62.16
29197;BME280;62796;42.654;23.316;2022-09-09T02:28:20;94730.09;;;20.10;62.48
29197;BME280;62796;42.654;23.316;2022-09-09T02:30:49;94730.09;;;20.10;62.19
29197;BME280;62796;42.654;23.316;2022-09-09T02:33:23;94734.88;;;20.05;62.55
29197;BME280;62796;42.654;23.316;2022-09-09T02:35:51;94742.31;;;20.08;62.49
29197;BME280;62796;42.654;23.316;2022-09-09T02:38:17;94751.16;;;20.08;62.56
29197;BME280;62796;42.654;23.316;2022-09-09T02:40:44;94757.66;;;20.07;62.34
29197;BME280;62796;42.654;23.316;2022-09-09T02:43:10;94755.28;;;19.97;62.47
29197;BME280;62796;42.654;23.316;2022-09-09T02:45:48;94767.81;;;19.93;62.62
29197;BME280;62796;42.654;23.316;2022-09-09T02:50:59;94758.91;;;19.66;63.67
29197;BME280;62796;42.654;23.316;2022-09-09T02:54:06;94764.78;;;19.68;63.33
29197;BME280;62796;42.654;23.316;2022-09-09T02:56:40;94764.28;;;19.58;63.75
29197;BME280;62796;42.654;23.316;2022-09-09T02:59:07;94751.97;;;19.57;63.75
29197;BME280;62796;42.654;23.316;2022-09-09T03:01:33;94748.28;;;19.52;63.67
29197;BME280;62796;42.654;23.316;2022-09-09T03:03:58;94751.94;;;19.48;63.94
29197;BME280;62796;42.654;23.316;2022-09-09T03:06:23;94755.44;;;19.57;63.56
29197;BME280;62796;42.654;23.316;2022-09-09T03:08:49;94760.66;;;19.53;63.67
29197;BME280;62796;42.654;23.316;2022-09-09T03:11:16;94776.97;;;19.57;63.75
29197;BME280;62796;42.654;23.316;2022-09-09T03:13:41;94773.16;;;19.58;63.74
29197;BME280;62796;42.654;23.316;2022-09-09T03:16:06;94773.66;;;19.60;63.74
29197;BME280;62796;42.654;23.316;2022-09-09T03:18:32;94761.91;;;19.65;63.64
29197;BME280;62796;42.654;23.316;2022-09-09T03:20:57;94755.44;;;19.57;63.43
29197;BME280;62796;42.654;23.316;2022-09-09T03:23:24;94760.19;;;19.51;63.32
29197;BME280;62796;42.654;23.316;2022-09-09T03:25:50;94762.38;;;19.58;63.63
29197;BME280;62796;42.654;23.316;2022-09-09T03:28:17;94766.19;;;19.57;63.62
29197;BME280;62796;42.654;23.316;2022-09-09T03:30:43;94765.25;;;19.53;63.38
29197;BME280;62796;42.654;23.316;2022-09-09T03:33:08;94758.72;;;19.45;63.56
29197;BME280;62796;42.654;23.316;2022-09-09T03:35:34;94763.66;;;19.52;63.60
29197;BME280;62796;42.654;23.316;2022-09-09T03:37:59;94757.94;;;19.45;63.59
29197;BME280;62796;42.654;23.316;2022-09-09T03:40:26;94766.50;;;19.47;63.49
29197;BME280;62796;42.654;23.316;2022-09-09T03:42:51;94768.72;;;19.53;63.62
29197;BME280;62796;42.654;23.316;2022-09-09T03:45:17;94759.88;;;19.53;63.81
29197;BME280;62796;42.654;23.316;2022-09-09T03:47:42;94752.72;;;19.48;63.48
29197;BME280;62796;42.654;23.316;2022-09-09T03:50:08;94751.94;;;19.48;63.65
29197;BME280;62796;42.654;23.316;2022-09-09T03:52:40;94757.31;;;19.48;63.56
29197;BME280;62796;42.654;23.316;2022-09-09T03:55:07;94766.19;;;19.57;63.63
29197;BME280;62796;42.654;23.316;2022-09-09T03:57:34;94766.97;;;19.58;63.52
29197;BME280;62796;42.654;23.316;2022-09-09T04:00:04;94772.06;;;19.59;63.44
29197;BME280;62796;42.654;23.316;2022-09-09T04:02:31;94764.75;;;19.60;63.41
29197;BME280;62796;42.654;23.316;2022-09-09T04:04:56;94761.75;;;19.61;63.70
29197;BME280;62796;42.654;23.316;2022-09-09T04:07:22;94776.00;;;19.62;63.89
29197;BME280;62796;42.654;23.316;2022-09-09T04:09:47;94787.25;;;19.64;64.01
29197;BME280;62796;42.654;23.316;2022-09-09T04:12:13;94772.06;;;19.59;63.69
29197;BME280;62796;42.654;23.316;2022-09-09T04:14:38;94777.13;;;19.61;63.36
29197;BME280;62796;42.654;23.316;2022-09-09T04:17:04;94773.31;;;19.62;63.41
29197;BME280;62796;42.654;23.316;2022-09-09T04:19:31;94765.56;;;19.60;63.51
29197;BME280;62796;42.654;23.316;2022-09-09T04:21:57;94759.69;;;19.58;63.08
29197;BME280;62796;42.654;23.316;2022-09-09T04:24:22;94760.19;;;19.60;63.29
29197;BME280;62796;42.654;23.316;2022-09-09T04:26:48;94774.13;;;19.62;63.23
29197;BME280;62796;42.654;23.316;2022-09-09T04:29:14;94764.91;;;19.63;63.22
29197;BME280;62796;42.654;23.316;2022-09-09T04:31:39;94760.19;;;19.60;63.28
29197;BME280;62796;42.654;23.316;2022-09-09T04:34:08;94762.69;;;19.65;63.02
29197;BME280;62796;42.654;23.316;2022-09-09T04:36:34;94767.63;;;19.72;63.10
29197;BME280;62796;42.654;23.316;2022-09-09T04:39:00;94775.56;;;19.77;63.13
29197;BME280;62796;42.654;23.316;2022-09-09T04:41:27;94784.78;;;19.85;62.69
29197;BME280;62796;42.654;23.316;2022-09-09T04:43:52;94785.88;;;19.84;62.69
29197;BME280;62796;42.654;23.316;2022-09-09T04:46:20;94791.56;;;19.82;62.96
29197;BME280;62796;42.654;23.316;2022-09-09T04:48:45;94783.50;;;19.82;62.99
29197;BME280;62796;42.654;23.316;2022-09-09T04:51:12;94773.03;;;19.81;62.62
29197;BME280;62796;42.654;23.316;2022-09-09T04:53:38;94758.16;;;19.83;62.89
29197;BME280;62796;42.654;23.316;2022-09-09T04:58:31;94758.31;;;20.04;62.49
29197;BME280;62796;42.654;23.316;2022-09-09T05:03:36;94767.00;;;20.27;61.58
29197;BME280;62796;42.654;23.316;2022-09-09T05:06:10;94759.19;;;20.43;61.42
29197;BME280;62796;42.654;23.316;2022-09-09T05:08:40;94735.06;;;20.56;60.86
29197;BME280;62796;42.654;23.316;2022-09-09T05:11:17;94729.47;;;20.70;60.72
29197;BME280;62796;42.654;23.316;2022-09-09T05:13:44;94744.00;;;20.86;60.21
29197;BME280;62796;42.654;23.316;2022-09-09T05:16:10;94749.97;;;21.00;59.78
29197;BME280;62796;42.654;23.316;2022-09-09T05:18:40;94759.59;;;21.10;59.39
29197;BME280;62796;42.654;23.316;2022-09-09T05:21:06;94756.84;;;21.19;59.40
29197;BME280;62796;42.654;23.316;2022-09-09T05:23:32;94740.81;;;21.22;59.09
29197;BME280;62796;42.654;23.316;2022-09-09T05:25:59;94744.03;;;21.37;58.99
29197;BME280;62796;42.654;23.316;2022-09-09T05:28:26;94736.22;;;21.44;58.64
29197;BME280;62796;42.654;23.316;2022-09-09T05:31:02;94748.50;;;21.63;58.36
29197;BME280;62796;42.654;23.316;2022-09-09T05:33:34;94755.09;;;21.74;58.09
29197;BME280;62796;42.654;23.316;2022-09-09T05:36:05;94752.91;;;21.88;57.90
29197;BME280;62796;42.654;23.316;2022-09-09T05:38:33;94741.25;;;21.96;57.21
29197;BME280;62796;42.654;23.316;2022-09-09T05:40:59;94743.22;;;22.08;57.11
29197;BME280;62796;42.654;23.316;2022-09-09T05:43:26;94749.66;;;22.16;56.75
29197;BME280;62796;42.654;23.316;2022-09-09T05:46:12;94750.19;;;22.30;56.54
29197;BME280;62796;42.654;23.316;2022-09-09T05:48:40;94765.78;;;22.46;55.94
29197;BME280;62796;42.654;23.316;2022-09-09T05:51:09;94760.63;;;22.65;55.62
29197;BME280;62796;42.654;23.316;2022-09-09T05:53:35;94761.00;;;22.76;55.05
29197;BME280;62796;42.654;23.316;2022-09-09T05:56:06;94749.41;;;22.88;54.51
29197;BME280;62796;42.654;23.316;2022-09-09T05:58:32;94750.84;;;22.98;54.54
29197;BME280;62796;42.654;23.316;2022-09-09T06:01:05;94758.00;;;23.15;53.68
29197;BME280;62796;42.654;23.316;2022-09-09T06:03:33;94758.09;;;23.30;53.86
29197;BME280;62796;42.654;23.316;2022-09-09T06:06:07;94772.63;;;23.38;53.03
29197;BME280;62796;42.654;23.316;2022-09-09T06:08:34;94767.56;;;23.37;52.92
29197;BME280;62796;42.654;23.316;2022-09-09T06:11:14;94783.78;;;23.61;52.37
29197;BME280;62796;42.654;23.316;2022-09-09T06:13:40;94778.88;;;23.79;51.63
29197;BME280;62796;42.654;23.316;2022-09-09T06:16:11;94779.34;;;23.94;51.12
29197;BME280;62796;42.654;23.316;2022-09-09T06:18:41;94780.63;;;24.12;50.59
29197;BME280;62796;42.654;23.316;2022-09-09T06:21:11;94768.34;;;24.31;50.27
29197;BME280;62796;42.654;23.316;2022-09-09T06:23:40;94777.78;;;24.49;50.23
29197;BME280;62796;42.654;23.316;2022-09-09T06:26:16;94775.56;;;24.39;50.47
29197;BME280;62796;42.654;23.316;2022-09-09T06:28:43;94764.72;;;24.39;50.49
29197;BME280;62796;42.654;23.316;2022-09-09T06:31:10;94775.50;;;24.51;50.31
29197;BME280;62796;42.654;23.316;2022-09-09T06:33:38;94768.44;;;24.62;49.78
29197;BME280;62796;42.654;23.316;2022-09-09T06:36:18;94768.13;;;24.80;49.51
29197;BME280;62796;42.654;23.316;2022-09-09T06:38:44;94747.09;;;24.93;48.63
29197;BME280;62796;42.654;23.316;2022-09-09T06:41:11;94753.94;;;25.18;47.43
29197;BME280;62796;42.654;23.316;2022-09-09T06:43:37;94758.06;;;25.28;47.47
29197;BME280;62796;42.654;23.316;2022-09-09T06:48:36;94744.22;;;25.69;46.74
29197;BME280;62796;42.654;23.316;2022-09-09T06:51:07;94763.25;;;25.88;46.29
29197;BME280;62796;42.654;23.316;2022-09-09T06:53:34;94782.81;;;25.94;46.03
29197;BME280;62796;42.654;23.316;2022-09-09T06:56:02;94767.53;;;26.05;45.64
29197;BME280;62796;42.654;23.316;2022-09-09T06:58:28;94774.44;;;26.22;45.26
29197;BME280;62796;42.654;23.316;2022-09-09T07:01:04;94773.88;;;26.32;45.60
29197;BME280;62796;42.654;23.316;2022-09-09T07:03:30;94766.53;;;26.13;45.30
29197;BME280;62796;42.654;23.316;2022-09-09T07:05:56;94769.06;;;26.26;45.27
29197;BME280;62796;42.654;23.316;2022-09-09T07:08:22;94772.22;;;26.47;45.10
29197;BME280;62796;42.654;23.316;2022-09-09T07:10:48;94775.38;;;26.69;44.57
29197;BME280;62796;42.654;23.316;2022-09-09T07:13:14;94774.72;;;26.76;44.14
29197;BME280;62796;42.654;23.316;2022-09-09T07:15:41;94765.22;;;26.89;44.21
29197;BME280;62796;42.654;23.316;2022-09-09T07:18:07;94767.19;;;27.15;43.68
29197;BME280;62796;42.654;23.316;2022-09-09T07:20:32;94761.28;;;27.33;43.28
29197;BME280;62796;42.654;23.316;2022-09-09T07:22:58;94770.13;;;27.53;42.27
29197;BME280;62796;42.654;23.316;2022-09-09T07:25:24;94764.50;;;27.69;42.23
29197;BME280;62796;42.654;23.316;2022-09-09T07:27:53;94761.56;;;27.81;42.38
29197;BME280;62796;42.654;23.316;2022-09-09T07:30:20;94759.03;;;27.95;42.33
29197;BME280;62796;42.654;23.316;2022-09-09T07:32:46;94761.81;;;27.99;42.00
29197;BME280;62796;42.654;23.316;2022-09-09T07:35:11;94759.59;;;28.08;41.39
29197;BME280;62796;42.654;23.316;2022-09-09T07:37:37;94746.75;;;28.09;41.53
29197;BME280;62796;42.654;23.316;2022-09-09T07:40:03;94760.25;;;28.28;41.24
29197;BME280;62796;42.654;23.316;2022-09-09T07:42:30;94756.59;;;28.51;40.85
29197;BME280;62796;42.654;23.316;2022-09-09T07:44:55;94762.63;;;28.67;40.92
29197;BME280;62796;42.654;23.316;2022-09-09T07:47:20;94767.13;;;28.90;40.55
29197;BME280;62796;42.654;23.316;2022-09-09T07:49:46;94765.34;;;29.12;39.81
29197;BME280;62796;42.654;23.316;2022-09-09T07:52:12;94762.53;;;29.01;39.45
29197;BME280;62796;42.654;23.316;2022-09-09T07:54:37;94768.16;;;28.74;41.00
29197;BME280;62796;42.654;23.316;2022-09-09T07:57:03;94773.34;;;28.87;40.68
29197;BME280;62796;42.654;23.316;2022-09-09T07:59:29;94754.91;;;29.18;39.81
29197;BME280;62796;42.654;23.316;2022-09-09T08:01:55;94750.78;;;29.42;39.55
29197;BME280;62796;42.654;23.316;2022-09-09T08:04:22;94755.91;;;29.50;39.35
29197;BME280;62796;42.654;23.316;2022-09-09T08:06:50;94761.13;;;29.70;38.58
29197;BME280;62796;42.654;23.316;2022-09-09T08:09:18;94758.31;;;29.56;39.01
29197;BME280;62796;42.654;23.316;2022-09-09T08:11:44;94761.34;;;29.43;39.73
29197;BME280;62796;42.654;23.316;2022-09-09T08:14:10;94760.88;;;29.34;39.92
29197;BME280;62796;42.654;23.316;2022-09-09T08:16:39;94756.22;;;29.34;39.55
29197;BME280;62796;42.654;23.316;2022-09-09T08:19:05;94757.06;;;29.49;39.20
29197;BME280;62796;42.654;23.316;2022-09-09T08:21:33;94767.75;;;29.72;39.46
29197;BME280;62796;42.654;23.316;2022-09-09T08:24:00;94760.81;;;29.79;38.63
29197;BME280;62796;42.654;23.316;2022-09-09T08:26:35;94762.84;;;29.96;38.33
29197;BME280;62796;42.654;23.316;2022-09-09T08:29:02;94763.59;;;29.89;38.83
29197;BME280;62796;42.654;23.316;2022-09-09T08:31:31;94743.28;;;29.90;38.50
29197;BME280;62796;42.654;23.316;2022-09-09T08:33:59;94752.66;;;29.89;38.30
29197;BME280;62796;42.654;23.316;2022-09-09T08:36:26;94745.84;;;29.65;38.42
29197;BME280;62796;42.654;23.316;2022-09-09T08:38:54;94748.16;;;29.60;38.31
29197;BME280;62796;42.654;23.316;2022-09-09T08:55:40;94744.41;;;29.82;37.84
29197;BME280;62796;42.654;23.316;2022-09-09T08:58:27;94748.78;;;30.01;37.84
29197;BME280;62796;42.654;23.316;2022-09-09T09:11:48;94735.25;;;30.30;37.22
29197;BME280;62796;42.654;23.316;2022-09-09T09:14:23;94741.19;;;30.54;36.38
29197;BME280;62796;42.654;23.316;2022-09-09T09:17:02;94741.59;;;30.63;36.26
29197;BME280;62796;42.654;23.316;2022-09-09T09:19:29;94738.06;;;30.59;36.84
29197;BME280;62796;42.654;23.316;2022-09-09T09:27:59;94723.06;;;30.17;36.12
29197;BME280;62796;42.654;23.316;2022-09-09T09:30:44;94735.19;;;30.16;36.79
29197;BME280;62796;42.654;23.316;2022-09-09T09:33:18;94742.97;;;30.10;36.92
29197;BME280;62796;42.654;23.316;2022-09-09T09:35:45;94744.91;;;30.06;37.02
29197;BME280;62796;42.654;23.316;2022-09-09T09:38:23;94735.09;;;29.98;37.06
29197;BME280;62796;42.654;23.316;2022-09-09T09:40:53;94726.50;;;29.96;37.23
29197;BME280;62796;42.654;23.316;2022-09-09T09:43:33;94724.66;;;30.18;37.18
29197;BME280;62796;42.654;23.316;2022-09-09T09:46:00;94721.56;;;30.34;36.88
29197;BME280;62796;42.654;23.316;2022-09-09T09:48:27;94724.34;;;30.41;37.04
29197;BME280;62796;42.654;23.316;2022-09-09T09:51:13;94721.63;;;30.48;36.42
29197;BME280;62796;42.654;23.316;2022-09-09T09:53:41;94717.28;;;30.40;36.84
29197;BME280;62796;42.654;23.316;2022-09-09T09:56:12;94706.69;;;30.27;36.18
29197;BME280;62796;42.654;23.316;2022-09-09T10:01:28;94709.41;;;30.24;36.22
29197;BME280;62796;42.654;23.316;2022-09-09T10:03:58;94710.97;;;30.21;36.66
29197;BME280;62796;42.654;23.316;2022-09-09T10:06:34;94706.63;;;30.13;36.69
29197;BME280;62796;42.654;23.316;2022-09-09T10:09:03;94717.22;;;30.18;36.61
29197;BME280;62796;42.654;23.316;2022-09-09T10:11:52;94715.25;;;30.22;36.33
29197;BME280;62796;42.654;23.316;2022-09-09T10:14:25;94719.94;;;30.11;36.74
29197;BME280;62796;42.654;23.316;2022-09-09T10:19:37;94723.38;;;29.94;37.38
29197;BME280;62796;42.654;23.316;2022-09-09T10:30:19;94720.78;;;29.52;38.26
29197;BME280;62796;42.654;23.316;2022-09-09T10:38:14;94726.19;;;29.42;38.48
29197;BME280;62796;42.654;23.316;2022-09-09T10:46:22;94730.59;;;29.09;39.89
29197;BME280;62796;42.654;23.316;2022-09-09T10:49:15;94734.09;;;29.02;39.89
29197;BME280;62796;42.654;23.316;2022-09-09T10:55:12;94736.00;;;29.02;40.10
29197;BME280;62796;42.654;23.316;2022-09-09T10:57:45;94735.19;;;28.94;40.75
29197;BME280;62796;42.654;23.316;2022-09-09T11:00:22;94730.09;;;28.92;40.33
29197;BME280;62796;42.654;23.316;2022-09-09T11:03:02;94731.50;;;28.75;40.83
29197;BME280;62796;42.654;23.316;2022-09-09T11:05:34;94720.22;;;28.81;40.66
29197;BME280;62796;42.654;23.316;2022-09-09T11:08:04;94734.38;;;28.90;40.62
29197;BME280;62796;42.654;23.316;2022-09-09T11:13:29;94726.66;;;29.03;40.28
29197;BME280;62796;42.654;23.316;2022-09-09T11:16:19;94733.09;;;29.25;39.49
29197;BME280;62796;42.654;23.316;2022-09-09T11:18:48;94705.66;;;29.10;39.74
29197;BME280;62796;42.654;23.316;2022-09-09T11:21:23;94719.03;;;29.23;40.56
29197;BME280;62796;42.654;23.316;2022-09-09T11:23:59;94712.81;;;29.26;40.60
29197;BME280;62796;42.654;23.316;2022-09-09T11:26:39;94705.41;;;29.30;40.77
29197;BME280;62796;42.654;23.316;2022-09-09T11:40:19;94676.00;;;29.12;41.50
29197;BME280;62796;42.654;23.316;2022-09-09T11:42:46;94674.91;;;29.17;41.83
29197;BME280;62796;42.654;23.316;2022-09-09T11:45:24;94673.38;;;29.27;41.23
29197;BME280;62796;42.654;23.316;2022-09-09T11:47:59;94664.41;;;29.26;40.89
29197;BME280;62796;42.654;23.316;2022-09-09T11:52:51;94623.38;;;29.15;41.30
29197;BME280;62796;42.654;23.316;2022-09-09T11:55:33;94634.69;;;29.18;41.42
29197;BME280;62796;42.654;23.316;2022-09-09T11:58:04;94640.16;;;29.18;41.59
29197;BME280;62796;42.654;23.316;2022-09-09T12:00:41;94643.59;;;29.11;41.44
29197;BME280;62796;42.654;23.316;2022-09-09T12:06:17;94639.44;;;29.24;42.05
29197;BME280;62796;42.654;23.316;2022-09-09T12:08:49;94627.06;;;29.45;41.43
29197;BME280;62796;42.654;23.316;2022-09-09T12:11:29;94632.69;;;29.77;40.78
29197;BME280;62796;42.654;23.316;2022-09-09T12:13:58;94635.47;;;29.99;40.89
29197;BME280;62796;42.654;23.316;2022-09-09T12:16:33;94630.44;;;30.22;40.00
29197;BME280;62796;42.654;23.316;2022-09-09T12:19:15;94630.44;;;30.33;40.24
29197;BME280;62796;42.654;23.316;2022-09-09T12:21:45;94625.44;;;30.53;39.54
29197;BME280;62796;42.654;23.316;2022-09-09T12:24:35;94607.81;;;30.61;39.68
29197;BME280;62796;42.654;23.316;2022-09-09T12:27:12;94624.25;;;30.65;39.89
29197;BME280;62796;42.654;23.316;2022-09-09T12:29:56;94616.44;;;30.78;39.35
29197;BME280;62796;42.654;23.316;2022-09-09T12:32:25;94608.59;;;31.01;38.79
29197;BME280;62796;42.654;23.316;2022-09-09T12:34:59;94614.06;;;31.19;38.76
29197;BME280;62796;42.654;23.316;2022-09-09T12:37:35;94599.94;;;31.28;38.60
29197;BME280;62796;42.654;23.316;2022-09-09T12:40:06;94594.44;;;31.28;38.43
29197;BME280;62796;42.654;23.316;2022-09-09T12:42:40;94593.69;;;31.24;38.76
29197;BME280;62796;42.654;23.316;2022-09-09T12:45:16;94603.06;;;31.23;38.91
29197;BME280;62796;42.654;23.316;2022-09-09T12:50:24;94607.00;;;31.22;38.79
29197;BME280;62796;42.654;23.316;2022-09-09T12:52:57;94604.28;;;31.15;39.26
29197;BME280;62796;42.654;23.316;2022-09-09T12:55:32;94594.50;;;31.07;39.27
29197;BME280;62796;42.654;23.316;2022-09-09T12:57:59;94594.50;;;31.07;38.95
29197;BME280;62796;42.654;23.316;2022-09-09T13:00:26;94566.34;;;31.02;38.97
29197;BME280;62796;42.654;23.316;2022-09-09T13:03:00;94581.59;;;31.00;38.41
29197;BME280;62796;42.654;23.316;2022-09-09T13:05:36;94573.78;;;30.84;38.95
29197;BME280;62796;42.654;23.316;2022-09-09T13:08:13;94586.72;;;30.62;39.24
29197;BME280;62796;42.654;23.316;2022-09-09T13:13:12;94567.16;;;30.53;38.84
29197;BME280;62796;42.654;23.316;2022-09-09T13:15:39;94570.31;;;30.51;39.65
29197;BME280;62796;42.654;23.316;2022-09-09T13:18:10;94567.56;;;30.44;39.78
29197;BME280;62796;42.654;23.316;2022-09-09T13:20:37;94574.22;;;30.43;39.61
29197;BME280;62796;42.654;23.316;2022-09-09T13:23:03;94567.13;;;30.27;39.87
29197;BME280;62796;42.654;23.316;2022-09-09T13:25:29;94571.81;;;30.20;40.66
29197;BME280;62796;42.654;23.316;2022-09-09T13:28:05;94556.19;;;30.17;40.22
29197;BME280;62796;42.654;23.316;2022-09-09T13:30:31;94537.03;;;30.13;41.19
29197;BME280;62796;42.654;23.316;2022-09-09T13:35:47;94533.44;;;29.73;41.15
29197;BME280;62796;42.654;23.316;2022-09-09T13:38:15;94534.59;;;29.65;42.00
29197;BME280;62796;42.654;23.316;2022-09-09T13:40:52;94543.88;;;29.42;42.30
29197;BME280;62796;42.654;23.316;2022-09-09T13:43:21;94548.19;;;29.43;42.36
29197;BME280;62796;42.654;23.316;2022-09-09T13:46:21;94534.91;;;29.45;42.78
29197;BME280;62796;42.654;23.316;2022-09-09T13:51:46;94518.88;;;29.37;42.73
29197;BME280;62796;42.654;23.316;2022-09-09T13:54:17;94533.69;;;29.35;43.02
29197;BME280;62796;42.654;23.316;2022-09-09T13:56:43;94529.38;;;29.24;43.09
29197;BME280;62796;42.654;23.316;2022-09-09T13:59:12;94546.41;;;29.03;43.06
29197;BME280;62796;42.654;23.316;2022-09-09T14:01:39;94526.78;;;28.79;43.88
29197;BME280;62796;42.654;23.316;2022-09-09T14:04:04;94528.38;;;28.87;43.88
29197;BME280;62796;42.654;23.316;2022-09-09T14:06:33;94526.88;;;28.93;43.53
29197;BME280;62796;42.654;23.316;2022-09-09T14:09:02;94530.00;;;28.99;43.79
29197;BME280;62796;42.654;23.316;2022-09-09T14:11:28;94534.34;;;29.11;43.19
29197;BME280;62796;42.654;23.316;2022-09-09T14:13:53;94527.44;;;29.28;43.21
29197;BME280;62796;42.654;23.316;2022-09-09T14:16:19;94525.97;;;29.52;42.96
29197;BME280;62796;42.654;23.316;2022-09-09T14:18:45;94527.91;;;29.59;42.36
29197;BME280;62796;42.654;23.316;2022-09-09T14:21:11;94537.72;;;29.67;41.88
29197;BME280;62796;42.654;23.316;2022-09-09T14:23:37;94518.56;;;29.67;42.38
29197;BME280;62796;42.654;23.316;2022-09-09T14:26:06;94519.34;;;29.64;41.77
29197;BME280;62796;42.654;23.316;2022-09-09T14:28:32;94521.69;;;29.69;41.76
29197;BME280;62796;42.654;23.316;2022-09-09T14:31:02;94520.53;;;29.70;42.09
29197;BME280;62796;42.654;23.316;2022-09-09T14:33:29;94534.63;;;29.76;42.01
29197;BME280;62796;42.654;23.316;2022-09-09T14:35:59;94540.09;;;29.76;41.54
29197;BME280;62796;42.654;23.316;2022-09-09T14:38:25;94526.47;;;29.97;41.24
29197;BME280;62796;42.654;23.316;2022-09-09T14:40:50;94526.47;;;30.04;40.90
29197;BME280;62796;42.654;23.316;2022-09-09T14:43:16;94519.44;;;29.96;40.91
29197;BME280;62796;42.654;23.316;2022-09-09T14:45:41;94515.50;;;29.86;41.15
29197;BME280;62796;42.654;23.316;2022-09-09T14:48:08;94512.00;;;29.86;41.02
29197;BME280;62796;42.654;23.316;2022-09-09T14:50:33;94510.44;;;29.85;40.79
29197;BME280;62796;42.654;23.316;2022-09-09T14:53:01;94503.81;;;29.86;41.02
29197;BME280;62796;42.654;23.316;2022-09-09T14:55:27;94504.91;;;29.74;40.89
29197;BME280;62796;42.654;23.316;2022-09-09T14:57:54;94516.66;;;29.78;40.95
29197;BME280;62796;42.654;23.316;2022-09-09T15:00:19;94517.06;;;29.80;41.27
29197;BME280;62796;42.654;23.316;2022-09-09T15:02:45;94518.59;;;29.74;41.40
29197;BME280;62796;42.654;23.316;2022-09-09T15:05:10;94521.69;;;29.69;41.32
29197;BME280;62796;42.654;23.316;2022-09-09T15:07:36;94532.25;;;29.67;41.36
29197;BME280;62796;42.654;23.316;2022-09-09T15:10:02;94538.50;;;29.75;41.34
29197;BME280;62796;42.654;23.316;2022-09-09T15:12:28;94541.63;;;29.69;41.10
29197;BME280;62796;42.654;23.316;2022-09-09T15:14:53;94541.56;;;29.55;41.11
29197;BME280;62796;42.654;23.316;2022-09-09T15:17:20;94541.56;;;29.51;41.12
29197;BME280;62796;42.654;23.316;2022-09-09T15:19:45;94532.56;;;29.44;41.75